sensor_id;sensor_type;location;lat;lon;timestamp;pressure;altitude;pressure_sealevel;temperature;humidity
8334;BME280;4204;43.004;23.052;2023-07-31T00:01:53;93511.94;;;22.61;100.00
8334;BME280;4204;43.004;23.052;2023-07-31T00:04:21;93517.31;;;22.71;100.00
8334;BME280;4204;43.004;23.052;2023-07-31T00:06:50;93518.38;;;22.88;100.00
8334;BME280;4204;43.004;23.052;2023-07-31T00:09:18;93510.22;;;22.88;100.00
8334;BME280;4204;43.004;23.052;2023-07-31T00:11:46;93507.09;;;22.93;100.00
8334;BME280;4204;43.004;23.052;2023-07-31T00:14:14;93511.00;;;22.85;100.00
8334;BME280;4204;43.004;23.052;2023-07-31T00:16:41;93509.41;;;22.91;100.00
8334;BME280;4204;43.004;23.052;2023-07-31T00:19:09;93510.16;;;22.95;100.00
8334;BME280;4204;43.004;23.052;2023-07-31T00:21:37;93504.78;;;22.91;100.00
8334;BME280;4204;43.004;23.052;2023-07-31T00:24:06;93505.25;;;22.79;100.00
8334;BME280;4204;43.004;23.052;2023-07-31T00:26:33;93508.44;;;22.57;100.00
8334;BME280;4204;43.004;23.052;2023-07-31T00:29:01;93508.06;;;22.54;100.00
8334;BME280;4204;43.004;23.052;2023-07-31T00:31:30;93507.34;;;22.43;100.00
8334;BME280;4204;43.004;23.052;2023-07-31T00:33:58;93505.88;;;22.28;100.00
8334;BME280;4204;43.004;23.052;2023-07-31T00:36:25;93498.94;;;22.17;100.00
8334;BME280;4204;43.004;23.052;2023-07-31T00:38:53;93491.91;;;22.33;100.00
8334;BME280;4204;43.004;23.052;2023-07-31T00:41:22;93484.50;;;22.44;100.00
8334;BME280;4204;43.004;23.052;2023-07-31T00:43:50;93488.00;;;22.45;100.00
8334;BME280;4204;43.004;23.052;2023-07-31T00:46:18;93486.78;;;22.53;100.00
8334;BME280;4204;43.004;23.052;2023-07-31T00:48:45;93487.53;;;22.61;100.00
8334;BME280;4204;43.004;23.052;2023-07-31T00:51:13;93489.06;;;22.62;100.00
8334;BME280;4204;43.004;23.052;2023-07-31T00:53:41;93494.88;;;22.57;100.00
8334;BME280;4204;43.004;23.052;2023-07-31T00:56:10;93502.63;;;22.62;100.00
8334;BME280;4204;43.004;23.052;2023-07-31T00:58:40;93502.50;;;22.83;100.00
8334;BME280;4204;43.004;23.052;2023-07-31T01:01:08;93504.06;;;22.80;100.00
8334;BME280;4204;43.004;23.052;2023-07-31T01:03:36;93503.75;;;22.71;100.00
8334;BME280;4204;43.004;23.052;2023-07-31T01:06:19;93504.50;;;22.75;100.00
8334;BME280;4204;43.004;23.052;2023-07-31T01:08:56;93491.78;;;22.62;100.00
8334;BME280;4204;43.004;23.052;2023-07-31T01:11:28;93481.72;;;22.51;100.00
8334;BME280;4204;43.004;23.052;2023-07-31T01:13:58;93493.00;;;22.46;100.00
8334;BME280;4204;43.004;23.052;2023-07-31T01:16:26;93496.50;;;22.43;100.00
8334;BME280;4204;43.004;23.052;2023-07-31T01:18:54;93488.03;;;22.34;100.00
8334;BME280;4204;43.004;23.052;2023-07-31T01:21:41;93497.28;;;22.44;100.00
8334;BME280;4204;43.004;23.052;2023-07-31T01:24:23;93498.41;;;22.50;100.00
8334;BME280;4204;43.004;23.052;2023-07-31T01:27:00;93495.69;;;22.50;100.00
8334;BME280;4204;43.004;23.052;2023-07-31T01:29:35;93494.50;;;22.58;100.00
8334;BME280;4204;43.004;23.052;2023-07-31T01:32:06;93487.03;;;22.76;100.00
8334;BME280;4204;43.004;23.052;2023-07-31T01:34:35;93480.78;;;22.90;100.00
8334;BME280;4204;43.004;23.052;2023-07-31T01:37:05;93491.22;;;22.91;100.00
8334;BME280;4204;43.004;23.052;2023-07-31T01:39:32;93486.28;;;22.76;100.00
8334;BME280;4204;43.004;23.052;2023-07-31T01:42:01;93487.88;;;22.70;100.00
8334;BME280;4204;43.004;23.052;2023-07-31T01:44:29;93490.59;;;22.66;100.00
8334;BME280;4204;43.004;23.052;2023-07-31T01:46:57;93486.28;;;22.76;100.00
8334;BME280;4204;43.004;23.052;2023-07-31T01:49:26;93481.19;;;22.85;100.00
8334;BME280;4204;43.004;23.052;2023-07-31T01:51:54;93478.56;;;22.71;100.00
8334;BME280;4204;43.004;23.052;2023-07-31T01:54:22;93473.66;;;22.44;100.00
8334;BME280;4204;43.004;23.052;2023-07-31T01:56:50;93472.44;;;22.52;100.00
8334;BME280;4204;43.004;23.052;2023-07-31T01:59:19;93479.81;;;22.59;100.00
8334;BME280;4204;43.004;23.052;2023-07-31T02:01:46;93480.94;;;22.62;100.00
8334;BME280;4204;43.004;23.052;2023-07-31T02:04:14;93480.22;;;22.43;100.00
8334;BME280;4204;43.004;23.052;2023-07-31T02:06:44;93479.09;;;22.37;100.00
8334;BME280;4204;43.004;23.052;2023-07-31T02:09:12;93479.53;;;22.29;100.00
8334;BME280;4204;43.004;23.052;2023-07-31T02:11:39;93479.22;;;22.13;100.00
8334;BME280;4204;43.004;23.052;2023-07-31T02:14:07;93472.31;;;21.94;100.00
8334;BME280;4204;43.004;23.052;2023-07-31T02:16:36;93470.78;;;21.93;100.00
8334;BME280;4204;43.004;23.052;2023-07-31T02:19:04;93475.41;;;21.96;100.00
8334;BME280;4204;43.004;23.052;2023-07-31T02:21:32;93480.06;;;21.85;100.00
8334;BME280;4204;43.004;23.052;2023-07-31T02:24:00;93474.28;;;21.87;100.00
8334;BME280;4204;43.004;23.052;2023-07-31T02:26:27;93480.47;;;21.91;100.00
8334;BME280;4204;43.004;23.052;2023-07-31T02:28:55;93487.41;;;21.95;100.00
8334;BME280;4204;43.004;23.052;2023-07-31T02:31:23;93485.78;;;22.08;100.00
8334;BME280;4204;43.004;23.052;2023-07-31T02:33:52;93492.31;;;22.28;100.00
8334;BME280;4204;43.004;23.052;2023-07-31T02:36:19;93493.44;;;22.34;100.00
8334;BME280;4204;43.004;23.052;2023-07-31T02:38:47;93495.00;;;22.32;100.00
8334;BME280;4204;43.004;23.052;2023-07-31T02:41:15;93490.34;;;22.36;100.00
8334;BME280;4204;43.004;23.052;2023-07-31T02:43:42;93492.31;;;22.28;100.00
8334;BME280;4204;43.004;23.052;2023-07-31T02:46:10;93493.00;;;22.46;100.00
8334;BME280;4204;43.004;23.052;2023-07-31T02:48:38;93490.25;;;22.53;100.00
8334;BME280;4204;43.004;23.052;2023-07-31T02:51:07;93494.91;;;22.53;100.00
8334;BME280;4204;43.004;23.052;2023-07-31T02:53:35;93498.81;;;22.48;100.00
8334;BME280;4204;43.004;23.052;2023-07-31T02:56:03;93496.84;;;22.52;100.00
8334;BME280;4204;43.004;23.052;2023-07-31T02:58:30;93496.88;;;22.45;100.00
8334;BME280;4204;43.004;23.052;2023-07-31T03:00:58;93497.66;;;22.46;100.00
8334;BME280;4204;43.004;23.052;2023-07-31T03:03:26;93498.81;;;22.45;100.00
8334;BME280;4204;43.004;23.052;2023-07-31T03:05:53;93494.91;;;22.53;100.00
8334;BME280;4204;43.004;23.052;2023-07-31T03:08:23;93496.06;;;22.59;100.00
8334;BME280;4204;43.004;23.052;2023-07-31T03:13:18;93497.19;;;22.65;100.00
8334;BME280;4204;43.004;23.052;2023-07-31T03:15:45;93501.44;;;22.66;100.00
8334;BME280;4204;43.004;23.052;2023-07-31T03:18:13;93496.44;;;22.61;100.00
8334;BME280;4204;43.004;23.052;2023-07-31T03:20:42;93490.25;;;22.53;100.00
8334;BME280;4204;43.004;23.052;2023-07-31T03:23:10;93513.09;;;22.52;100.00
8334;BME280;4204;43.004;23.052;2023-07-31T03:25:41;93518.09;;;22.58;100.00
8334;BME280;4204;43.004;23.052;2023-07-31T03:28:09;93507.69;;;22.52;100.00
8334;BME280;4204;43.004;23.052;2023-07-31T03:30:37;93514.25;;;22.55;100.00
8334;BME280;4204;43.004;23.052;2023-07-31T03:33:05;93512.75;;;22.47;100.00
8334;BME280;4204;43.004;23.052;2023-07-31T03:35:32;93515.88;;;22.35;100.00
8334;BME280;4204;43.004;23.052;2023-07-31T03:38:00;93522.91;;;22.22;100.00
8334;BME280;4204;43.004;23.052;2023-07-31T03:40:28;93518.34;;;21.94;100.00
8334;BME280;4204;43.004;23.052;2023-07-31T03:42:57;93531.88;;;21.87;100.00
8334;BME280;4204;43.004;23.052;2023-07-31T03:45:25;93533.09;;;21.83;100.00
8334;BME280;4204;43.004;23.052;2023-07-31T03:47:53;93533.84;;;21.87;100.00
8334;BME280;4204;43.004;23.052;2023-07-31T03:50:21;93534.97;;;22.03;100.00
8334;BME280;4204;43.004;23.052;2023-07-31T03:52:48;93533.38;;;22.20;100.00
8334;BME280;4204;43.004;23.052;2023-07-31T03:55:16;93531.00;;;22.36;100.00
8334;BME280;4204;43.004;23.052;2023-07-31T03:57:44;93533.69;;;22.39;100.00
8334;BME280;4204;43.004;23.052;2023-07-31T04:00:13;93541.41;;;22.44;100.00
8334;BME280;4204;43.004;23.052;2023-07-31T04:02:41;93536.41;;;22.29;100.00
8334;BME280;4204;43.004;23.052;2023-07-31T04:05:09;93539.91;;;22.29;100.00
8334;BME280;4204;43.004;23.052;2023-07-31T04:07:37;93549.97;;;22.32;100.00
8334;BME280;4204;43.004;23.052;2023-07-31T04:10:05;93541.81;;;22.39;100.00
8334;BME280;4204;43.004;23.052;2023-07-31T04:12:33;93542.94;;;22.45;100.00
8334;BME280;4204;43.004;23.052;2023-07-31T04:15:01;93537.16;;;22.40;100.00
8334;BME280;4204;43.004;23.052;2023-07-31T04:17:32;93548.38;;;22.45;100.00
8334;BME280;4204;43.004;23.052;2023-07-31T04:19:59;93556.91;;;22.37;100.00
8334;BME280;4204;43.004;23.052;2023-07-31T04:22:27;93558.47;;;22.31;100.00
8334;BME280;4204;43.004;23.052;2023-07-31T04:24:55;93552.31;;;22.23;100.00
8334;BME280;4204;43.004;23.052;2023-07-31T04:27:23;93552.69;;;22.29;100.00
8334;BME280;4204;43.004;23.052;2023-07-31T04:29:50;93551.53;;;22.26;100.00
8334;BME280;4204;43.004;23.052;2023-07-31T04:32:18;93555.41;;;22.25;100.00
8334;BME280;4204;43.004;23.052;2023-07-31T04:34:48;93556.56;;;22.24;100.00
8334;BME280;4204;43.004;23.052;2023-07-31T04:37:16;93555.03;;;22.16;100.00
8334;BME280;4204;43.004;23.052;2023-07-31T04:39:44;93551.59;;;22.16;100.00
8334;BME280;4204;43.004;23.052;2023-07-31T04:42:12;93549.63;;;22.16;100.00
8334;BME280;4204;43.004;23.052;2023-07-31T04:44:41;93550.47;;;21.99;100.00
8334;BME280;4204;43.004;23.052;2023-07-31T04:47:09;93548.53;;;21.93;100.00
8334;BME280;4204;43.004;23.052;2023-07-31T04:49:37;93551.22;;;21.96;100.00
8334;BME280;4204;43.004;23.052;2023-07-31T04:52:06;93552.00;;;21.97;100.00
8334;BME280;4204;43.004;23.052;2023-07-31T04:54:36;93557.41;;;22.00;100.00
8334;BME280;4204;43.004;23.052;2023-07-31T04:57:06;93547.00;;;21.95;100.00
8334;BME280;4204;43.004;23.052;2023-07-31T04:59:37;93557.78;;;22.02;100.00
8334;BME280;4204;43.004;23.052;2023-07-31T05:02:06;93545.03;;;21.92;100.00
8334;BME280;4204;43.004;23.052;2023-07-31T05:04:35;93541.56;;;21.99;100.00
8334;BME280;4204;43.004;23.052;2023-07-31T05:07:05;93542.34;;;21.82;100.00
8334;BME280;4204;43.004;23.052;2023-07-31T05:09:35;93542.72;;;21.87;100.00
8334;BME280;4204;43.004;23.052;2023-07-31T05:12:04;93550.09;;;21.87;100.00
8334;BME280;4204;43.004;23.052;2023-07-31T05:14:33;93551.63;;;21.70;100.00
8334;BME280;4204;43.004;23.052;2023-07-31T05:17:01;93559.75;;;21.73;100.00
8334;BME280;4204;43.004;23.052;2023-07-31T05:19:28;93553.16;;;21.78;100.00
8334;BME280;4204;43.004;23.052;2023-07-31T05:21:57;93557.41;;;21.79;100.00
8334;BME280;4204;43.004;23.052;2023-07-31T05:24:26;93551.66;;;21.84;100.00
8334;BME280;4204;43.004;23.052;2023-07-31T05:26:55;93546.59;;;21.68;100.00
8334;BME280;4204;43.004;23.052;2023-07-31T05:29:22;93543.88;;;21.68;100.00
8334;BME280;4204;43.004;23.052;2023-07-31T05:31:51;93550.84;;;21.73;100.00
8334;BME280;4204;43.004;23.052;2023-07-31T05:34:19;93538.88;;;21.67;100.00
8334;BME280;4204;43.004;23.052;2023-07-31T05:40:14;93547.78;;;21.57;100.00
8334;BME280;4204;43.004;23.052;2023-07-31T05:42:42;93545.84;;;21.47;100.00
8334;BME280;4204;43.004;23.052;2023-07-31T05:45:10;93541.59;;;21.35;100.00
8334;BME280;4204;43.004;23.052;2023-07-31T05:47:44;93549.31;;;21.37;100.00
8334;BME280;4204;43.004;23.052;2023-07-31T05:50:12;93550.09;;;21.44;100.00
8334;BME280;4204;43.004;23.052;2023-07-31T05:52:40;93546.22;;;21.42;100.00
8334;BME280;4204;43.004;23.052;2023-07-31T05:55:08;93553.56;;;21.48;100.00
8334;BME280;4204;43.004;23.052;2023-07-31T05:57:37;93566.34;;;21.62;100.00
8334;BME280;4204;43.004;23.052;2023-07-31T06:00:06;93559.75;;;21.73;100.00
8334;BME280;4204;43.004;23.052;2023-07-31T06:02:34;93550.47;;;21.71;100.00
8334;BME280;4204;43.004;23.052;2023-07-31T06:05:04;93562.06;;;21.93;100.00
8334;BME280;4204;43.004;23.052;2023-07-31T06:07:32;93556.28;;;21.91;100.00
8334;BME280;4204;43.004;23.052;2023-07-31T06:10:00;93569.03;;;21.83;100.00
8334;BME280;4204;43.004;23.052;2023-07-31T06:12:31;93567.09;;;21.80;100.00
8334;BME280;4204;43.004;23.052;2023-07-31T06:15:01;93584.88;;;21.74;100.00
8334;BME280;4204;43.004;23.052;2023-07-31T06:17:31;93575.22;;;21.69;100.00
8334;BME280;4204;43.004;23.052;2023-07-31T06:19:59;93579.06;;;21.79;100.00
8334;BME280;4204;43.004;23.052;2023-07-31T06:22:27;93577.16;;;21.76;100.00
8334;BME280;4204;43.004;23.052;2023-07-31T06:24:54;93580.25;;;21.85;100.00
8334;BME280;4204;43.004;23.052;2023-07-31T06:27:22;93575.22;;;21.91;100.00
8334;BME280;4204;43.004;23.052;2023-07-31T06:29:50;93584.84;;;22.06;100.00
8334;BME280;4204;43.004;23.052;2023-07-31T06:32:19;93566.69;;;22.06;100.00
8334;BME280;4204;43.004;23.052;2023-07-31T06:34:47;93560.09;;;22.04;100.00
8334;BME280;4204;43.004;23.052;2023-07-31T06:37:15;93550.44;;;21.96;100.00
8334;BME280;4204;43.004;23.052;2023-07-31T06:39:43;93567.06;;;22.08;100.00
8334;BME280;4204;43.004;23.052;2023-07-31T06:42:10;93573.66;;;22.04;100.00
8334;BME280;4204;43.004;23.052;2023-07-31T06:44:38;93560.91;;;21.97;100.00
8334;BME280;4204;43.004;23.052;2023-07-31T06:47:08;93569.00;;;22.04;100.00
8334;BME280;4204;43.004;23.052;2023-07-31T06:49:37;93569.78;;;22.08;100.00
8334;BME280;4204;43.004;23.052;2023-07-31T06:52:05;93571.72;;;22.11;100.00
8334;BME280;4204;43.004;23.052;2023-07-31T06:54:33;93570.91;;;22.21;100.00
8334;BME280;4204;43.004;23.052;2023-07-31T06:57:01;93562.34;;;22.26;100.00
8334;BME280;4204;43.004;23.052;2023-07-31T06:59:28;93570.50;;;22.26;100.00
8334;BME280;4204;43.004;23.052;2023-07-31T07:01:56;93568.16;;;22.35;100.00
8334;BME280;4204;43.004;23.052;2023-07-31T07:04:24;93571.66;;;22.29;100.00
8334;BME280;4204;43.004;23.052;2023-07-31T07:06:54;93570.88;;;22.32;100.00
8334;BME280;4204;43.004;23.052;2023-07-31T07:09:22;93568.94;;;22.29;100.00
8334;BME280;4204;43.004;23.052;2023-07-31T07:11:50;93571.66;;;22.25;100.00
8334;BME280;4204;43.004;23.052;2023-07-31T07:14:17;93572.44;;;22.29;100.00
8334;BME280;4204;43.004;23.052;2023-07-31T07:16:45;93574.31;;;22.43;100.00
8334;BME280;4204;43.004;23.052;2023-07-31T07:19:13;93570.84;;;22.42;100.00
8334;BME280;4204;43.004;23.052;2023-07-31T07:21:41;93568.09;;;22.49;100.00
8334;BME280;4204;43.004;23.052;2023-07-31T07:24:10;93561.88;;;22.63;100.00
8334;BME280;4204;43.004;23.052;2023-07-31T07:26:38;93568.84;;;22.53;100.00
8334;BME280;4204;43.004;23.052;2023-07-31T07:29:05;93566.91;;;22.65;100.00
8334;BME280;4204;43.004;23.052;2023-07-31T07:31:34;93570.00;;;22.60;100.00
8334;BME280;4204;43.004;23.052;2023-07-31T07:34:02;93573.09;;;22.62;100.00
8334;BME280;4204;43.004;23.052;2023-07-31T07:36:30;93563.41;;;22.71;100.00
8334;BME280;4204;43.004;23.052;2023-07-31T07:38:58;93565.69;;;22.76;100.00
8334;BME280;4204;43.004;23.052;2023-07-31T07:41:28;93565.94;;;22.99;100.00
8334;BME280;4204;43.004;23.052;2023-07-31T07:43:55;93556.22;;;23.09;100.00
8334;BME280;4204;43.004;23.052;2023-07-31T07:46:23;93558.09;;;23.19;100.00
8334;BME280;4204;43.004;23.052;2023-07-31T07:48:51;93570.44;;;23.27;100.00
8334;BME280;4204;43.004;23.052;2023-07-31T07:51:19;93563.78;;;23.39;100.00
8334;BME280;4204;43.004;23.052;2023-07-31T07:53:46;93566.13;;;23.40;100.00
8334;BME280;4204;43.004;23.052;2023-07-31T07:56:14;93571.97;;;23.28;100.00
8334;BME280;4204;43.004;23.052;2023-07-31T07:58:43;93567.66;;;23.41;100.00
8334;BME280;4204;43.004;23.052;2023-07-31T08:01:11;93559.50;;;23.41;100.00
8334;BME280;4204;43.004;23.052;2023-07-31T08:03:39;93567.69;;;23.38;100.00
8334;BME280;4204;43.004;23.052;2023-07-31T08:06:07;93568.06;;;23.36;100.00
8334;BME280;4204;43.004;23.052;2023-07-31T08:08:35;93558.75;;;23.37;100.00
8334;BME280;4204;43.004;23.052;2023-07-31T08:11:04;93561.44;;;23.44;100.00
8334;BME280;4204;43.004;23.052;2023-07-31T08:13:34;93564.53;;;23.46;100.00
8334;BME280;4204;43.004;23.052;2023-07-31T08:16:06;93573.56;;;23.77;100.00
8334;BME280;4204;43.004;23.052;2023-07-31T08:18:35;93567.50;;;24.03;100.00
8334;BME280;4204;43.004;23.052;2023-07-31T08:21:04;93567.91;;;24.01;100.00
8334;BME280;4204;43.004;23.052;2023-07-31T08:23:33;93567.44;;;24.14;100.00
8334;BME280;4204;43.004;23.052;2023-07-31T08:26:01;93559.59;;;24.23;100.00
8334;BME280;4204;43.004;23.052;2023-07-31T08:28:29;93559.78;;;24.39;100.00
8334;BME280;4204;43.004;23.052;2023-07-31T08:30:58;93558.84;;;24.52;100.00
8334;BME280;4204;43.004;23.052;2023-07-31T08:33:27;93556.28;;;24.72;100.00
8334;BME280;4204;43.004;23.052;2023-07-31T08:35:55;93560.44;;;24.83;100.00
8334;BME280;4204;43.004;23.052;2023-07-31T08:38:23;93563.56;;;24.82;100.00
8334;BME280;4204;43.004;23.052;2023-07-31T08:40:51;93560.56;;;25.03;100.00
8334;BME280;4204;43.004;23.052;2023-07-31T08:43:20;93567.91;;;25.06;100.00
8334;BME280;4204;43.004;23.052;2023-07-31T08:45:50;93555.00;;;25.10;100.00
8334;BME280;4204;43.004;23.052;2023-07-31T08:48:21;93562.81;;;25.08;100.00
8334;BME280;4204;43.004;23.052;2023-07-31T08:50:51;93559.19;;;25.18;100.00
8334;BME280;4204;43.004;23.052;2023-07-31T08:53:19;93556.00;;;25.23;100.00
8334;BME280;4204;43.004;23.052;2023-07-31T08:55:48;93558.50;;;25.37;100.00
8334;BME280;4204;43.004;23.052;2023-07-31T08:58:17;93560.06;;;25.38;100.00
8334;BME280;4204;43.004;23.052;2023-07-31T09:00:46;93554.59;;;25.42;100.00
8334;BME280;4204;43.004;23.052;2023-07-31T09:03:16;93556.38;;;25.52;100.00
8334;BME280;4204;43.004;23.052;2023-07-31T09:05:46;93553.13;;;25.60;100.00
8334;BME280;4204;43.004;23.052;2023-07-31T09:08:21;93553.25;;;25.77;100.00
8334;BME280;4204;43.004;23.052;2023-07-31T09:10:49;93556.38;;;25.75;100.00
8334;BME280;4204;43.004;23.052;2023-07-31T09:13:18;93548.31;;;25.91;100.00
8334;BME280;4204;43.004;23.052;2023-07-31T09:15:46;93549.00;;;25.99;100.00
8334;BME280;4204;43.004;23.052;2023-07-31T09:18:14;93553.59;;;26.02;100.00
8334;BME280;4204;43.004;23.052;2023-07-31T09:20:45;93550.53;;;26.00;100.00
8334;BME280;4204;43.004;23.052;2023-07-31T09:23:15;93551.06;;;26.14;100.00
8334;BME280;4204;43.004;23.052;2023-07-31T09:25:44;93548.63;;;26.20;100.00
8334;BME280;4204;43.004;23.052;2023-07-31T09:28:11;93547.25;;;26.31;100.00
8334;BME280;4204;43.004;23.052;2023-07-31T09:30:45;93534.16;;;26.42;100.00
8334;BME280;4204;43.004;23.052;2023-07-31T09:33:14;93521.72;;;26.41;100.00
8334;BME280;4204;43.004;23.052;2023-07-31T09:35:42;93531.16;;;26.37;100.00
8334;BME280;4204;43.004;23.052;2023-07-31T09:38:11;93527.81;;;26.49;100.00
8334;BME280;4204;43.004;23.052;2023-07-31T09:40:41;93537.66;;;26.43;100.00
8334;BME280;4204;43.004;23.052;2023-07-31T09:43:10;93540.28;;;26.50;100.00
8334;BME280;4204;43.004;23.052;2023-07-31T09:45:41;93540.31;;;26.66;100.00
8334;BME280;4204;43.004;23.052;2023-07-31T09:48:10;93543.41;;;26.68;100.00
8334;BME280;4204;43.004;23.052;2023-07-31T09:50:40;93542.44;;;26.59;100.00
8334;BME280;4204;43.004;23.052;2023-07-31T09:53:08;93529.91;;;26.41;100.00
8334;BME280;4204;43.004;23.052;2023-07-31T09:55:38;93535.78;;;26.60;100.00
8334;BME280;4204;43.004;23.052;2023-07-31T09:58:08;93534.47;;;26.87;100.00
8334;BME280;4204;43.004;23.052;2023-07-31T10:00:37;93534.03;;;26.89;100.00
8334;BME280;4204;43.004;23.052;2023-07-31T10:03:07;93527.22;;;26.97;100.00
8334;BME280;4204;43.004;23.052;2023-07-31T10:05:36;93528.94;;;26.91;100.00
8334;BME280;4204;43.004;23.052;2023-07-31T10:08:07;93514.19;;;27.04;100.00
8334;BME280;4204;43.004;23.052;2023-07-31T10:10:37;93529.66;;;27.11;100.00
8334;BME280;4204;43.004;23.052;2023-07-31T10:13:07;93513.25;;;27.11;100.00
8334;BME280;4204;43.004;23.052;2023-07-31T10:15:36;93526.00;;;27.34;100.00
8334;BME280;4204;43.004;23.052;2023-07-31T10:18:05;93518.47;;;27.41;100.00
8334;BME280;4204;43.004;23.052;2023-07-31T10:20:34;93512.91;;;27.45;100.00
8334;BME280;4204;43.004;23.052;2023-07-31T10:23:04;93510.28;;;27.41;100.00
8334;BME280;4204;43.004;23.052;2023-07-31T10:25:34;93511.72;;;27.46;100.00
8334;BME280;4204;43.004;23.052;2023-07-31T10:28:07;93510.59;;;27.43;100.00
8334;BME280;4204;43.004;23.052;2023-07-31T10:30:37;93520.19;;;27.32;100.00
8334;BME280;4204;43.004;23.052;2023-07-31T10:33:06;93520.75;;;27.07;100.00
8334;BME280;4204;43.004;23.052;2023-07-31T10:35:35;93516.19;;;27.20;100.00
8334;BME280;4204;43.004;23.052;2023-07-31T10:38:10;93515.13;;;27.50;100.00
8334;BME280;4204;43.004;23.052;2023-07-31T10:40:39;93520.59;;;27.50;100.00
8334;BME280;4204;43.004;23.052;2023-07-31T10:43:09;93506.06;;;27.37;100.00
8334;BME280;4204;43.004;23.052;2023-07-31T10:45:38;93501.94;;;27.29;100.00
8334;BME280;4204;43.004;23.052;2023-07-31T10:48:12;93504.78;;;27.25;100.00
8334;BME280;4204;43.004;23.052;2023-07-31T10:50:47;93514.47;;;27.46;100.00
8334;BME280;4204;43.004;23.052;2023-07-31T10:53:23;93497.53;;;27.35;100.00
8334;BME280;4204;43.004;23.052;2023-07-31T10:55:52;93514.63;;;27.39;100.00
8334;BME280;4204;43.004;23.052;2023-07-31T10:58:22;93510.94;;;27.61;100.00
8334;BME280;4204;43.004;23.052;2023-07-31T11:00:55;93516.91;;;27.56;100.00
8334;BME280;4204;43.004;23.052;2023-07-31T11:03:25;93503.00;;;27.51;100.00
8334;BME280;4204;43.004;23.052;2023-07-31T11:06:00;93515.03;;;27.53;100.00
8334;BME280;4204;43.004;23.052;2023-07-31T11:08:30;93500.19;;;27.54;100.00
8334;BME280;4204;43.004;23.052;2023-07-31T11:11:07;93503.59;;;27.74;100.00
8334;BME280;4204;43.004;23.052;2023-07-31T11:13:42;93506.25;;;27.62;100.00
8334;BME280;4204;43.004;23.052;2023-07-31T11:16:14;93502.09;;;27.21;100.00
8334;BME280;4204;43.004;23.052;2023-07-31T11:18:43;93494.28;;;27.40;100.00
8334;BME280;4204;43.004;23.052;2023-07-31T11:21:13;93494.97;;;27.60;100.00
8334;BME280;4204;43.004;23.052;2023-07-31T11:23:41;93497.72;;;27.60;100.00
8334;BME280;4204;43.004;23.052;2023-07-31T11:26:13;93499.56;;;27.63;100.00
8334;BME280;4204;43.004;23.052;2023-07-31T11:28:46;93501.47;;;27.66;100.00
8334;BME280;4204;43.004;23.052;2023-07-31T11:31:14;93506.59;;;27.64;100.00
8334;BME280;4204;43.004;23.052;2023-07-31T11:33:42;93495.22;;;27.65;100.00
8334;BME280;4204;43.004;23.052;2023-07-31T11:36:15;93495.13;;;27.69;100.00
8334;BME280;4204;43.004;23.052;2023-07-31T11:38:47;93505.50;;;27.45;100.00
8334;BME280;4204;43.004;23.052;2023-07-31T11:41:16;93517.19;;;27.46;100.00
8334;BME280;4204;43.004;23.052;2023-07-31T11:43:46;93504.53;;;27.36;100.00
8334;BME280;4204;43.004;23.052;2023-07-31T11:46:14;93513.22;;;27.31;100.00
8334;BME280;4204;43.004;23.052;2023-07-31T11:48:42;93501.66;;;27.23;100.00
8334;BME280;4204;43.004;23.052;2023-07-31T11:51:12;93497.06;;;27.20;100.00
8334;BME280;4204;43.004;23.052;2023-07-31T11:53:43;93494.63;;;27.42;100.00
8334;BME280;4204;43.004;23.052;2023-07-31T11:56:15;93493.09;;;27.41;100.00
8334;BME280;4204;43.004;23.052;2023-07-31T11:58:47;93487.44;;;27.32;100.00
8334;BME280;4204;43.004;23.052;2023-07-31T12:01:16;93500.63;;;27.37;100.00
8334;BME280;4204;43.004;23.052;2023-07-31T12:03:45;93495.97;;;27.34;100.00
8334;BME280;4204;43.004;23.052;2023-07-31T12:06:14;93496.34;;;27.52;100.00
8334;BME280;4204;43.004;23.052;2023-07-31T12:08:43;93495.41;;;27.42;100.00
8334;BME280;4204;43.004;23.052;2023-07-31T12:11:11;93491.31;;;27.50;100.00
8334;BME280;4204;43.004;23.052;2023-07-31T12:13:39;93494.13;;;27.47;100.00
8334;BME280;4204;43.004;23.052;2023-07-31T12:16:08;93484.69;;;27.32;100.00
8334;BME280;4204;43.004;23.052;2023-07-31T12:18:37;93485.47;;;27.32;100.00
8334;BME280;4204;43.004;23.052;2023-07-31T12:21:07;93477.50;;;27.41;100.00
8334;BME280;4204;43.004;23.052;2023-07-31T12:23:37;93481.50;;;27.37;100.00
8334;BME280;4204;43.004;23.052;2023-07-31T12:26:08;93473.03;;;27.47;100.00
8334;BME280;4204;43.004;23.052;2023-07-31T12:28:39;93467.69;;;27.44;100.00
8334;BME280;4204;43.004;23.052;2023-07-31T12:31:09;93468.84;;;27.59;100.00
8334;BME280;4204;43.004;23.052;2023-07-31T12:33:39;93460.47;;;27.66;100.00
8334;BME280;4204;43.004;23.052;2023-07-31T12:36:08;93454.81;;;27.89;100.00
8334;BME280;4204;43.004;23.052;2023-07-31T12:38:36;93460.09;;;27.96;100.00
8334;BME280;4204;43.004;23.052;2023-07-31T12:41:04;93458.03;;;28.00;100.00
8334;BME280;4204;43.004;23.052;2023-07-31T12:43:33;93461.94;;;28.15;100.00
8334;BME280;4204;43.004;23.052;2023-07-31T12:46:01;93452.53;;;28.16;100.00
8334;BME280;4204;43.004;23.052;2023-07-31T12:48:31;93455.09;;;28.36;100.00
8334;BME280;4204;43.004;23.052;2023-07-31T12:50:59;93432.56;;;28.32;100.00
8334;BME280;4204;43.004;23.052;2023-07-31T12:53:27;93445.78;;;28.33;100.00
8334;BME280;4204;43.004;23.052;2023-07-31T12:55:55;93443.00;;;28.21;100.00
8334;BME280;4204;43.004;23.052;2023-07-31T12:58:22;93443.28;;;28.26;100.00
8334;BME280;4204;43.004;23.052;2023-07-31T13:00:50;93449.25;;;28.21;100.00
8334;BME280;4204;43.004;23.052;2023-07-31T13:03:18;93443.50;;;28.32;100.00
8334;BME280;4204;43.004;23.052;2023-07-31T13:05:47;93445.31;;;28.51;100.00
8334;BME280;4204;43.004;23.052;2023-07-31T13:08:15;93449.13;;;28.53;100.00
8334;BME280;4204;43.004;23.052;2023-07-31T13:10:43;93441.13;;;28.46;100.00
8334;BME280;4204;43.004;23.052;2023-07-31T13:13:11;93448.00;;;28.38;100.00
8334;BME280;4204;43.004;23.052;2023-07-31T13:15:39;93453.13;;;28.36;100.00